Time;durP1;ratioP1;P1;durP2;ratioP2;P2;SDS_P1;SDS_P2;PMS_P1;PMS_P2;Temp;Humidity;BMP_temperature;BMP_pressure;BME280_temperature;BME280_humidity;BME280_pressure;Samples;Min_cycle;Max_cycle;Signal;HPM_P1;HPM_P2
2021/07/02 00:00:26;;;;;;;;;35.25;31.75;;;;;22.44;50.86;101236.78;5059844;28;45235;-81
2021/07/02 00:02:52;;;;;;;;;44.00;34.25;;;;;22.38;51.28;101231.09;5058622;28;47691;-81
2021/07/02 00:05:17;;;;;;;;;43.25;33.75;;;;;22.36;51.38;101227.72;5059556;28;45416;-81
2021/07/02 00:07:42;;;;;;;;;41.25;32.25;;;;;22.34;51.30;101227.03;5059955;28;45774;-82
2021/07/02 00:10:09;;;;;;;;;37.50;31.25;;;;;22.31;51.61;101227.34;5058815;28;45340;-81
2021/07/02 00:12:34;;;;;;;;;43.00;34.50;;;;;22.29;51.61;101236.63;5061339;28;47678;-81
2021/07/02 00:15:01;;;;;;;;;37.75;34.00;;;;;22.25;51.45;101221.81;5061126;28;45163;-81
2021/07/02 00:17:26;;;;;;;;;44.00;33.00;;;;;22.23;51.55;101224.66;5066663;28;45372;-81
2021/07/02 00:19:51;;;;;;;;;42.00;34.25;;;;;22.20;52.11;101221.50;5078775;28;45363;-81
2021/07/02 00:22:17;;;;;;;;;39.25;33.00;;;;;22.18;52.01;101229.72;5080333;28;45608;-81
2021/07/02 00:24:42;;;;;;;;;37.50;31.75;;;;;22.16;51.83;101218.28;5080044;28;45354;-81
2021/07/02 00:27:08;;;;;;;;;42.25;34.25;;;;;22.15;52.28;101224.66;5060753;28;45512;-81
2021/07/02 00:29:33;;;;;;;;;45.00;34.25;;;;;22.13;52.05;101225.84;5071909;28;45215;-81
2021/07/02 00:31:59;;;;;;;;;42.00;32.00;;;;;22.12;51.84;101225.03;5059130;28;45643;-81
2021/07/02 00:34:24;;;;;;;;;41.00;33.50;;;;;22.10;52.25;101227.03;5059924;28;45235;-81
2021/07/02 00:36:50;;;;;;;;;40.50;33.25;;;;;22.10;52.05;101226.19;5067217;28;45201;-81
2021/07/02 00:39:15;;;;;;;;;39.75;33.25;;;;;22.07;52.07;101226.50;5066532;28;45490;-81
2021/07/02 00:41:41;;;;;;;;;44.50;34.75;;;;;22.03;52.74;101231.41;5063599;28;45543;-81
2021/07/02 00:44:06;;;;;;;;;40.50;34.25;;;;;21.99;53.12;101238.09;5062124;28;45332;-81
2021/07/02 00:46:32;;;;;;;;;38.25;33.75;;;;;21.97;52.92;101240.06;5063004;28;45881;-81
2021/07/02 00:48:57;;;;;;;;;41.75;33.50;;;;;21.94;53.30;101243.13;5063095;28;45265;-81
2021/07/02 00:51:22;;;;;;;;;40.75;34.25;;;;;21.95;53.16;101242.09;5062932;28;45291;-81
2021/07/02 00:53:48;;;;;;;;;46.25;35.00;;;;;21.93;53.09;101241.44;5062998;28;45220;-81
2021/07/02 00:56:19;;;;;;;;;39.00;34.25;;;;;21.88;53.45;101238.38;5065785;28;45480;-81
2021/07/02 00:58:45;;;;;;;;;47.50;34.75;;;;;21.88;53.40;101239.22;5066446;28;45224;-81
2021/07/02 01:01:14;;;;;;;;;44.75;34.00;;;;;21.85;53.61;101234.16;5063795;28;45261;-81
2021/07/02 01:03:42;;;;;;;;;48.00;37.00;;;;;21.87;53.37;101242.91;5063114;28;45465;-81
2021/07/02 01:06:08;;;;;;;;;42.00;34.25;;;;;21.85;53.50;101230.66;5069422;28;45424;-81
2021/07/02 01:08:35;;;;;;;;;48.50;36.75;;;;;21.84;53.25;101229.81;5082731;28;45279;-81
2021/07/02 01:11:00;;;;;;;;;48.25;35.00;;;;;21.81;53.56;101229.28;5082838;28;45450;-81
2021/07/02 01:13:25;;;;;;;;;44.25;35.75;;;;;21.83;53.54;101233.50;5082917;28;45195;-81
2021/07/02 01:15:55;;;;;;;;;43.25;35.25;;;;;21.80;53.04;101228.44;5082189;28;45371;-81
2021/07/02 01:18:24;;;;;;;;;42.75;32.25;;;;;21.79;53.43;101228.59;5086820;28;45285;-81
2021/07/02 01:20:51;;;;;;;;;41.50;34.75;;;;;21.79;53.57;101234.81;5085692;28;45477;-81
2021/07/02 01:23:17;;;;;;;;;40.00;34.25;;;;;21.76;53.59;101228.97;5082806;28;45370;-81
2021/07/02 01:25:43;;;;;;;;;39.50;33.25;;;;;21.74;53.76;101230.97;5083106;28;45184;-81
2021/07/02 01:28:09;;;;;;;;;38.50;34.25;;;;;21.72;53.74;101232.97;5082514;28;45442;-81
2021/07/02 01:30:34;;;;;;;;;39.00;34.00;;;;;21.71;54.18;101226.75;5081046;28;46166;-81
2021/07/02 01:33:00;;;;;;;;;42.50;34.25;;;;;21.69;54.47;101226.06;5080880;27;45433;-81
2021/07/02 01:35:25;;;;;;;;;44.50;36.50;;;;;21.66;53.98;101221.03;5082389;28;45489;-81
2021/07/02 01:37:50;;;;;;;;;46.50;34.50;;;;;21.65;54.42;101230.94;5066750;28;45421;-81
2021/07/02 01:40:16;;;;;;;;;42.75;33.25;;;;;21.63;54.32;101224.88;5064920;28;47260;-81
2021/07/02 01:42:41;;;;;;;;;47.50;34.50;;;;;21.63;53.84;101218.66;5063005;28;45307;-81
2021/07/02 01:45:08;;;;;;;;;45.50;32.75;;;;;21.65;54.23;101222.03;5062637;28;45274;-81
2021/07/02 01:47:33;;;;;;;;;42.75;33.25;;;;;21.63;54.26;101218.66;5074887;28;45625;-81
2021/07/02 01:49:59;;;;;;;;;42.50;36.00;;;;;21.63;54.74;101226.72;5061678;28;45868;-81
2021/07/02 01:52:25;;;;;;;;;41.75;34.50;;;;;21.61;55.18;101223.34;5060625;28;45361;-81
2021/07/02 01:54:50;;;;;;;;;46.50;36.25;;;;;21.59;55.27;101215.44;5064705;28;45740;-81
2021/07/02 01:57:27;;;;;;;;;43.00;35.00;;;;;21.55;55.13;101219.47;5068477;28;45424;-81
2021/07/02 01:59:53;;;;;;;;;47.00;36.00;;;;;21.54;55.50;101222.31;5061864;28;47326;-81
2021/07/02 02:02:19;;;;;;;;;36.25;32.00;;;;;21.54;55.72;101220.47;5062130;28;45473;-81
2021/07/02 02:04:45;;;;;;;;;43.50;33.75;;;;;21.53;55.11;101207.22;5061212;28;45452;-81
2021/07/02 02:07:11;;;;;;;;;44.50;35.75;;;;;21.52;55.45;101208.22;5063644;28;45418;-81
2021/07/02 02:09:36;;;;;;;;;42.50;33.00;;;;;21.52;55.40;101209.06;5073099;28;45349;-81
2021/07/02 02:12:02;;;;;;;;;40.75;33.25;;;;;21.51;55.26;101203.84;5075131;28;45476;-81
2021/07/02 02:14:28;;;;;;;;;43.25;34.25;;;;;21.53;55.29;101209.91;5072429;28;45501;-81
2021/07/02 02:16:54;;;;;;;;;47.25;36.50;;;;;21.51;55.40;101211.91;5061984;28;45392;-81
2021/07/02 02:19:20;;;;;;;;;37.75;30.50;;;;;21.49;55.15;101213.91;5081414;28;45418;-81
2021/07/02 02:21:45;;;;;;;;;42.50;33.00;;;;;21.49;55.54;101204.00;5084387;28;45287;-81
2021/07/02 02:24:11;;;;;;;;;37.75;31.50;;;;;21.48;55.61;101205.03;5083768;28;45182;-81
2021/07/02 02:26:36;;;;;;;;;38.75;31.75;;;;;21.51;55.33;101210.06;5082433;28;45425;-82
2021/07/02 02:29:02;;;;;;;;;40.25;32.50;;;;;21.49;55.48;101206.69;5080125;28;46337;-82
2021/07/02 02:31:27;;;;;;;;;40.25;34.75;;;;;21.47;55.54;101205.19;5081914;28;45417;-82
2021/07/02 02:33:53;;;;;;;;;42.25;34.25;;;;;21.47;55.98;101206.03;5081325;28;45886;-82
2021/07/02 02:36:18;;;;;;;;;45.75;37.00;;;;;21.43;55.48;101196.59;5077181;28;45433;-82
2021/07/02 02:38:43;;;;;;;;;40.75;33.50;;;;;21.43;55.89;101203.81;5060458;28;47022;-82
2021/07/02 02:41:10;;;;;;;;;39.25;34.25;;;;;21.42;55.37;101205.66;5062673;28;45411;-82
2021/07/02 02:43:36;;;;;;;;;38.50;33.25;;;;;21.43;56.20;101198.44;5062651;28;45316;-79
2021/07/02 02:46:02;;;;;;;;;37.75;34.00;;;;;21.42;56.04;101205.66;5066065;28;45244;-79
2021/07/02 02:48:27;;;;;;;;;32.00;28.75;;;;;21.41;56.47;101192.38;5059927;28;47360;-80
2021/07/02 02:50:53;;;;;;;;;37.75;33.00;;;;;21.39;55.79;101202.47;5061120;28;45336;-80
2021/07/02 02:53:18;;;;;;;;;40.00;34.00;;;;;21.39;56.10;101202.47;5073538;28;45748;-80
2021/07/02 02:55:44;;;;;;;;;39.75;33.25;;;;;21.36;56.09;101194.72;5064528;28;45449;-80
2021/07/02 02:58:09;;;;;;;;;46.00;33.50;;;;;21.35;56.51;101198.41;5062093;28;46504;-80
2021/07/02 03:00:34;;;;;;;;;39.00;32.50;;;;;21.34;56.03;101194.88;5062121;28;45246;-79
2021/07/02 03:03:00;;;;;;;;;47.00;35.25;;;;;21.38;55.87;101198.09;5068104;28;45722;-81
2021/07/02 03:05:25;;;;;;;;;47.00;34.25;;;;;21.37;55.80;101193.72;5062913;28;45222;-80
2021/07/02 03:07:53;;;;;;;;;46.25;34.50;;;;;21.35;56.24;101193.88;5063271;28;45320;-80
2021/07/02 03:10:19;;;;;;;;;50.50;38.00;;;;;21.36;55.98;101192.03;5062453;28;45169;-80
2021/07/02 03:12:45;;;;;;;;;49.25;37.75;;;;;21.35;56.22;101190.34;5064646;28;45507;-80
2021/07/02 03:15:11;;;;;;;;;48.25;38.50;;;;;21.33;56.25;101190.50;5064974;28;45605;-80
2021/07/02 03:17:36;;;;;;;;;47.50;39.00;;;;;21.28;56.47;101191.00;5072425;28;45426;-80
2021/07/02 03:20:02;;;;;;;;;51.50;38.50;;;;;21.27;55.99;101188.47;5083861;28;45462;-80
2021/07/02 03:22:27;;;;;;;;;44.00;36.00;;;;;21.24;56.39;101184.25;5086008;28;45346;-80
2021/07/02 03:24:53;;;;;;;;;42.25;35.50;;;;;21.22;56.25;101190.78;5084890;28;45676;-80
2021/07/02 03:27:18;;;;;;;;;47.25;36.25;;;;;21.17;56.57;101180.56;5081221;28;47140;-80
2021/07/02 03:29:43;;;;;;;;;44.25;33.75;;;;;21.15;56.70;101187.88;5079814;28;45641;-80
2021/07/02 03:32:09;;;;;;;;;47.25;38.50;;;;;21.14;56.80;101196.94;5077789;28;45329;-80
2021/07/02 03:34:35;;;;;;;;;45.75;36.25;;;;;21.15;56.48;101182.50;5060859;28;45498;-80
2021/07/02 03:37:00;;;;;;;;;51.75;35.50;;;;;21.15;56.63;101197.78;5060004;28;45910;-80
2021/07/02 03:39:26;;;;;;;;;47.00;38.25;;;;;21.13;57.14;101189.03;5060563;28;45194;-81
2021/07/02 03:41:51;;;;;;;;;47.25;35.50;;;;;21.11;56.56;101185.69;5063030;28;45196;-81
2021/07/02 03:44:16;;;;;;;;;46.75;38.00;;;;;21.11;56.86;101191.06;5061742;28;45630;-81
2021/07/02 03:46:42;;;;;;;;;44.75;34.00;;;;;21.07;56.97;101190.53;5060775;28;45351;-81
2021/07/02 03:49:07;;;;;;;;;47.25;36.00;;;;;21.06;57.07;101190.69;5060975;28;45192;-81
2021/07/02 03:51:32;;;;;;;;;47.00;35.25;;;;;21.02;57.47;101192.03;5066731;28;45255;-81
2021/07/02 03:53:58;;;;;;;;;45.50;37.75;;;;;21.02;56.96;101187.50;5067584;28;45161;-81
2021/07/02 03:56:23;;;;;;;;;46.50;37.50;;;;;21.00;57.43;101191.34;5063631;28;45345;-81
2021/07/02 03:58:48;;;;;;;;;47.75;37.50;;;;;21.00;57.49;101194.03;5060624;28;45488;-81
2021/07/02 04:01:14;;;;;;;;;47.25;36.50;;;;;20.98;58.25;101190.66;5060470;28;45299;-81
2021/07/02 04:03:39;;;;;;;;;49.25;36.00;;;;;20.95;57.73;101199.03;5062246;28;45399;-81
2021/07/02 04:06:04;;;;;;;;;46.50;37.75;;;;;20.92;57.82;101197.53;5062975;28;46703;-81
2021/07/02 04:08:30;;;;;;;;;43.75;35.50;;;;;20.92;58.19;101195.69;5065276;28;45488;-81
2021/07/02 04:10:56;;;;;;;;;47.75;38.00;;;;;20.88;58.03;101196.13;5064151;28;45512;-81
2021/07/02 04:13:22;;;;;;;;;44.75;36.75;;;;;20.87;57.85;101192.63;5065290;28;45906;-81
2021/07/02 04:15:48;;;;;;;;;48.50;38.00;;;;;20.90;57.97;101202.19;5065515;28;45400;-80
2021/07/02 04:18:14;;;;;;;;;42.50;36.00;;;;;20.88;58.00;101201.50;5077663;28;45155;-81
2021/07/02 04:20:39;;;;;;;;;44.75;35.00;;;;;20.92;58.26;101208.25;5086141;27;45497;-81
2021/07/02 04:23:05;;;;;;;;;47.00;37.25;;;;;20.91;58.19;101207.41;5082665;27;45575;-81
2021/07/02 04:25:31;;;;;;;;;47.50;37.75;;;;;20.91;58.21;101199.34;5085401;28;46274;-81
2021/07/02 04:27:57;;;;;;;;;44.75;35.75;;;;;20.95;58.31;101209.75;5085699;28;45352;-81
2021/07/02 04:30:22;;;;;;;;;42.00;34.50;;;;;20.95;58.43;101199.03;5084571;28;45206;-81
2021/07/02 04:32:47;;;;;;;;;42.00;32.75;;;;;20.95;58.31;101201.69;5083582;28;45464;-80
2021/07/02 04:35:14;;;;;;;;;41.00;32.75;;;;;21.00;58.27;101215.50;5083391;28;46301;-81
2021/07/02 04:37:40;;;;;;;;;34.75;32.50;;;;;21.00;58.12;101212.81;5067556;28;45559;-80
2021/07/02 04:40:07;;;;;;;;;38.00;33.25;;;;;21.02;58.50;101216.19;5063567;28;45417;-81
2021/07/02 04:42:33;;;;;;;;;41.50;34.25;;;;;21.02;58.92;101218.88;5063778;28;45374;-81
2021/07/02 04:44:58;;;;;;;;;41.75;33.00;;;;;21.02;58.77;101216.19;5066004;28;47059;-81
2021/07/02 04:47:23;;;;;;;;;40.50;33.25;;;;;21.06;58.38;101220.22;5065836;28;45229;-81
2021/07/02 04:49:49;;;;;;;;;47.75;33.50;;;;;21.07;58.26;101220.06;5064014;28;45145;-81
2021/07/02 04:52:14;;;;;;;;;37.75;33.50;;;;;21.12;58.36;101223.09;5063288;28;45145;-81
2021/07/02 04:54:40;;;;;;;;;37.25;27.75;;;;;21.16;58.39;101213.75;5076652;28;45487;-81
2021/07/02 04:57:05;;;;;;;;;38.25;34.25;;;;;21.31;57.90;101216.69;5065394;28;45193;-80
2021/07/02 04:59:35;;;;;;;;;40.00;33.25;;;;;21.48;57.76;101220.31;5062846;28;45711;-81
2021/07/02 05:02:01;;;;;;;;;44.00;33.75;;;;;21.64;57.45;101217.66;5063060;28;45427;-81
2021/07/02 05:04:26;;;;;;;;;42.50;35.00;;;;;21.77;57.44;101212.63;5063183;28;45367;-81
2021/07/02 05:06:51;;;;;;;;;50.75;37.75;;;;;21.86;57.24;101208.97;5066053;28;45315;-81
2021/07/02 05:09:17;;;;;;;;;48.25;38.25;;;;;21.97;56.95;101211.38;5064256;28;45348;-81
2021/07/02 05:11:42;;;;;;;;;48.25;36.75;;;;;22.06;57.01;101208.69;5064229;28;45315;-81
2021/07/02 05:14:09;;;;;;;;;44.25;37.25;;;;;22.10;56.30;101207.34;5063424;28;45377;-81
2021/07/02 05:16:34;;;;;;;;;47.25;38.00;;;;;22.17;56.34;101222.66;5075543;28;45456;-80
2021/07/02 05:19:00;;;;;;;;;48.00;36.25;;;;;22.26;56.23;101223.50;5078740;28;45158;-81
2021/07/02 05:21:25;;;;;;;;;48.50;36.75;;;;;22.34;56.28;101224.34;5064089;28;45215;-81
2021/07/02 05:23:51;;;;;;;;;48.50;39.00;;;;;22.40;55.94;101222.81;5064967;28;45327;-81
2021/07/02 05:26:16;;;;;;;;;46.25;36.50;;;;;22.43;55.36;101216.25;5064513;28;45320;-80
2021/07/02 05:28:42;;;;;;;;;52.50;37.75;;;;;22.46;55.53;101214.09;5062651;28;45813;-81
2021/07/02 05:31:07;;;;;;;;;47.75;38.00;;;;;22.50;55.58;101217.25;5063171;28;45297;-81
2021/07/02 05:33:34;;;;;;;;;46.50;36.75;;;;;22.57;55.68;101210.22;5062612;28;46270;-81
2021/07/02 05:35:59;;;;;;;;;52.25;37.75;;;;;22.63;55.12;101217.59;5061989;28;45658;-82
2021/07/02 05:38:25;;;;;;;;;47.50;38.50;;;;;22.70;55.01;101216.75;5062288;28;45383;-81
2021/07/02 05:40:56;;;;;;;;;46.25;38.00;;;;;22.77;55.43;101216.91;5061017;28;45451;-81
2021/07/02 05:43:22;;;;;;;;;44.50;35.75;;;;;22.88;55.04;101216.56;5060648;28;46598;-80
2021/07/02 05:45:48;;;;;;;;;50.50;38.25;;;;;23.00;55.18;101215.19;5062552;28;45255;-81
2021/07/02 05:48:17;;;;;;;;;48.50;36.25;;;;;23.10;54.34;101220.41;5063619;28;45580;-82
2021/07/02 05:50:42;;;;;;;;;47.75;36.75;;;;;23.16;54.11;101225.06;5063533;28;45429;-82
2021/07/02 05:53:08;;;;;;;;;50.25;38.00;;;;;23.23;54.38;101220.66;5067590;28;45355;-81
2021/07/02 05:55:33;;;;;;;;;48.25;39.75;;;;;23.27;54.01;101223.88;5067889;28;45480;-81
2021/07/02 05:58:00;;;;;;;;;50.50;39.00;;;;;23.29;54.43;101228.06;5063965;27;45935;-81
2021/07/02 06:00:25;;;;;;;;;50.00;38.25;;;;;23.34;53.60;101225.69;5063061;28;45294;-81
2021/07/02 06:02:51;;;;;;;;;50.25;39.00;;;;;23.33;54.06;101220.47;5064115;28;45278;-81
2021/07/02 06:05:16;;;;;;;;;41.50;34.75;;;;;23.36;54.05;101233.59;5064373;28;46286;-81
2021/07/02 06:07:43;;;;;;;;;45.50;36.50;;;;;23.36;53.61;101225.50;5064803;28;45553;-82
2021/07/02 06:10:09;;;;;;;;;48.25;36.50;;;;;23.41;53.69;101223.13;5063476;28;45239;-81
2021/07/02 06:12:34;;;;;;;;;47.25;39.00;;;;;23.41;53.42;101225.81;5063163;28;45546;-81
2021/07/02 06:14:59;;;;;;;;;50.25;38.75;;;;;23.51;54.03;101223.78;5062235;28;45711;-81
2021/07/02 06:17:25;;;;;;;;;50.00;38.50;;;;;23.61;53.21;101219.03;5068012;28;45445;-81
2021/07/02 06:19:50;;;;;;;;;56.00;39.00;;;;;23.69;53.13;101223.53;5082821;28;45377;-81
2021/07/02 06:22:16;;;;;;;;;51.75;40.25;;;;;23.70;52.94;101220.66;5082050;28;45562;-81
2021/07/02 06:24:41;;;;;;;;;52.25;40.75;;;;;23.76;53.00;101225.31;5082964;28;45457;-80
2021/07/02 06:27:06;;;;;;;;;49.00;39.50;;;;;23.84;53.07;101217.22;5082527;28;45392;-82
2021/07/02 06:29:32;;;;;;;;;48.25;39.50;;;;;23.88;52.41;101212.28;5082377;28;45917;-81
2021/07/02 06:31:57;;;;;;;;;47.75;37.75;;;;;23.83;52.52;101207.44;5085551;28;45491;-80
2021/07/02 06:34:23;;;;;;;;;54.00;41.25;;;;;23.80;52.63;101207.78;5081000;28;45319;-81
2021/07/02 06:36:48;;;;;;;;;44.75;38.00;;;;;23.79;52.95;101216.88;5076246;28;45431;-81
2021/07/02 06:39:14;;;;;;;;;52.75;41.00;;;;;23.74;52.49;101213.91;5061197;28;45208;-81
2021/07/02 06:41:40;;;;;;;;;49.50;38.50;;;;;23.72;52.66;101217.78;5060112;28;47793;-82
2021/07/02 06:44:06;;;;;;;;;49.75;40.25;;;;;23.68;52.84;101214.59;5060532;28;45268;-81
2021/07/02 06:46:33;;;;;;;;;52.50;40.75;;;;;23.69;52.47;101223.53;5062333;28;45216;-82
2021/07/02 06:48:59;;;;;;;;;49.25;37.25;;;;;23.63;52.77;101222.38;5060878;28;45519;-82
2021/07/02 06:51:24;;;;;;;;;52.25;38.75;;;;;23.61;52.18;101221.72;5059342;28;47288;-82
2021/07/02 06:53:51;;;;;;;;;54.00;42.25;;;;;23.56;52.42;101217.88;5060965;28;45354;-82
2021/07/02 06:56:17;;;;;;;;;57.50;42.75;;;;;23.58;52.51;101215.84;5065123;28;45339;-81
2021/07/02 06:58:43;;;;;;;;;55.50;41.50;;;;;23.55;53.07;101218.91;5061889;28;45414;-80
2021/07/02 07:01:08;;;;;;;;;55.00;42.75;;;;;23.59;52.56;101225.59;5061186;28;47330;-82
2021/07/02 07:03:34;;;;;;;;;55.00;41.00;;;;;23.58;52.87;101224.75;5061075;28;45737;-81
2021/07/02 07:06:00;;;;;;;;;50.50;40.50;;;;;23.61;52.35;101227.09;5063195;28;45398;-81
2021/07/02 07:08:25;;;;;;;;;50.25;40.25;;;;;23.71;52.78;101229.59;5063640;28;45589;-82
2021/07/02 07:10:51;;;;;;;;;58.50;42.50;;;;;23.77;52.36;101228.88;5061503;28;47407;-81
2021/07/02 07:13:16;;;;;;;;;51.00;41.75;;;;;23.80;51.79;101229.38;5060935;28;45211;-82
2021/07/02 07:15:42;;;;;;;;;55.00;42.50;;;;;23.87;52.22;101238.41;5062192;28;45226;-82
2021/07/02 07:18:07;;;;;;;;;53.25;42.75;;;;;23.99;51.75;101232.63;5073404;28;45350;-82
2021/07/02 07:20:33;;;;;;;;;51.25;39.00;;;;;24.63;51.71;101231.28;5061422;28;48060;-81
2021/07/02 07:22:58;;;;;;;;;53.75;40.50;;;;;26.82;50.75;101236.44;5073871;28;45222;-81
2021/07/02 07:25:25;;;;;;;;;53.25;39.75;;;;;29.32;44.39;101219.84;5066469;28;45522;-81
2021/07/02 07:27:50;;;;;;;;;50.00;36.75;;;;;31.54;39.81;101225.69;5061466;28;45502;-81
2021/07/02 07:30:16;;;;;;;;;43.75;35.00;;;;;33.43;40.64;101227.44;5062909;28;46156;-81
2021/07/02 07:32:42;;;;;;;;;41.00;33.00;;;;;35.15;37.36;101235.09;5062994;28;45548;-81
2021/07/02 07:35:20;;;;;;;;;41.75;33.50;;;;;36.65;34.85;101228.75;5061905;28;45392;-82
2021/07/02 07:37:49;;;;;;;;;40.75;32.50;;;;;38.20;28.22;101228.06;5064021;28;45307;-81
2021/07/02 07:40:15;;;;;;;;;43.75;36.75;;;;;39.35;29.73;101241.09;5062604;28;45579;-81
2021/07/02 07:42:40;;;;;;;;;45.00;35.75;;;;;40.20;28.57;101236.22;5065416;28;45385;-82
2021/07/02 07:45:06;;;;;;;;;43.00;35.50;;;;;41.15;26.76;101243.94;5060022;28;45383;-82
2021/07/02 07:47:31;;;;;;;;;42.50;34.50;;;;;41.99;24.98;101245.84;5058575;28;45444;-83
2021/07/02 07:49:57;;;;;;;;;47.75;35.75;;;;;42.86;24.43;101239.69;5061476;28;45579;-82
2021/07/02 07:52:35;;;;;;;;;45.00;37.00;;;;;43.66;24.47;101250.25;5064836;28;45410;-83
2021/07/02 07:55:02;;;;;;;;;40.00;34.25;;;;;44.58;22.33;101255.25;5069243;28;45228;-83
2021/07/02 07:57:27;;;;;;;;;41.75;35.25;;;;;45.27;17.05;101251.97;5066418;28;45157;-83
2021/07/02 08:00:10;;;;;;;;;37.00;31.75;;;;;45.64;20.23;101248.63;5068549;28;46313;-83
2021/07/02 08:02:36;;;;;;;;;32.00;29.75;;;;;46.12;19.99;101253.25;5076205;28;45492;-82
2021/07/02 08:05:01;;;;;;;;;32.75;31.00;;;;;46.65;18.33;101257.59;5060233;28;45393;-83
2021/07/02 08:07:27;;;;;;;;;32.00;29.25;;;;;47.02;18.70;101262.41;5059397;28;45442;-82
2021/07/02 08:09:52;;;;;;;;;35.25;29.25;;;;;47.46;16.58;101257.41;5064051;28;45236;-81
2021/07/02 08:12:18;;;;;;;;;34.50;31.00;;;;;47.65;13.48;101261.38;5063631;28;45335;-83
2021/07/02 08:14:46;;;;;;;;;33.25;29.75;;;;;47.57;15.74;101264.25;5062091;28;45272;-83
2021/07/02 08:17:11;;;;;;;;;32.25;28.75;;;;;47.68;16.54;101261.88;5061242;28;45381;-84
2021/07/02 08:19:37;;;;;;;;;32.00;29.00;;;;;48.32;16.17;101260.34;5070207;28;47273;-84
2021/07/02 08:22:02;;;;;;;;;32.25;28.75;;;;;48.89;14.77;101264.34;5063597;28;45417;-83
2021/07/02 08:24:31;;;;;;;;;28.50;26.75;;;;;49.15;14.81;101264.03;5061454;28;45495;-83
2021/07/02 08:26:58;;;;;;;;;28.75;27.50;;;;;49.46;14.89;101265.00;5059509;28;45260;-82
2021/07/02 08:29:28;;;;;;;;;29.25;27.00;;;;;49.73;13.08;101271.06;5061577;28;45910;-84
2021/07/02 08:31:56;;;;;;;;;26.75;24.50;;;;;50.04;14.41;101270.41;5059940;28;45570;-83
2021/07/02 08:34:22;;;;;;;;;27.00;26.50;;;;;50.59;14.23;101269.56;5063815;28;45220;-84
2021/07/02 08:36:48;;;;;;;;;28.75;26.25;;;;;50.80;12.26;101258.03;5060626;28;45232;-82
2021/07/02 08:39:13;;;;;;;;;25.25;22.25;;;;;50.92;13.52;101263.56;5059462;28;47303;-82
2021/07/02 08:41:39;;;;;;;;;22.50;22.50;;;;;51.32;12.41;101263.38;5058970;28;45181;-82
2021/07/02 08:44:06;;;;;;;;;28.50;26.25;;;;;51.77;12.46;101265.59;5060897;28;45511;-83
2021/07/02 08:46:34;;;;;;;;;20.75;20.50;;;;;51.85;11.01;101263.72;5065342;28;45428;-83
2021/07/02 08:49:01;;;;;;;;;21.00;21.00;;;;;52.06;10.68;101255.75;5070929;28;46090;-83
2021/07/02 08:51:26;;;;;;;;;20.75;20.25;;;;;51.97;12.09;101247.53;5064007;28;45160;-83
2021/07/02 08:53:53;;;;;;;;;20.75;20.75;;;;;52.25;10.60;101252.09;5064317;28;45304;-83
2021/07/02 08:56:19;;;;;;;;;17.75;17.25;;;;;52.31;10.36;101254.22;5072167;28;45414;-83
2021/07/02 08:58:45;;;;;;;;;22.00;18.75;;;;;52.17;9.85;101248.31;5063829;28;46259;-82
2021/07/02 09:01:42;;;;;;;;;18.25;17.50;;;;;51.98;10.56;101248.34;5065277;28;45299;-84
2021/07/02 09:04:29;;;;;;;;;16.25;15.25;;;;;52.00;9.61;101243.13;5062626;28;45443;-83
2021/07/02 09:07:15;;;;;;;;;20.00;19.25;;;;;52.57;10.11;101241.41;5064368;28;45536;-83
2021/07/02 09:09:58;;;;;;;;;20.00;19.50;;;;;53.33;10.32;101251.53;5064649;28;45272;-83
2021/07/02 09:12:28;;;;;;;;;19.25;18.25;;;;;54.19;9.11;101230.00;5070669;28;45508;-83
2021/07/02 09:14:56;;;;;;;;;17.50;16.50;;;;;54.39;8.60;101235.06;5077111;28;45239;-84
2021/07/02 09:17:24;;;;;;;;;17.25;15.00;;;;;53.33;9.07;101248.72;5071636;28;44883;-84
2021/07/02 09:20:08;;;;;;;;;19.25;15.50;;;;;53.22;10.28;101235.63;5086329;28;45560;-84
2021/07/02 09:23:01;;;;;;;;;12.50;12.50;;;;;54.15;9.30;101232.81;5080479;28;45327;-83
2021/07/02 09:25:32;;;;;;;;;15.25;14.50;;;;;54.78;9.18;101232.63;5088420;28;45584;-84
2021/07/02 09:28:03;;;;;;;;;15.00;13.75;;;;;55.14;8.63;101228.03;5084356;28;45521;-82
2021/07/02 09:30:30;;;;;;;;;12.25;12.25;;;;;55.53;8.01;101228.25;5087524;28;46336;-82
2021/07/02 09:33:01;;;;;;;;;14.00;13.25;;;;;55.78;7.63;101225.53;5085852;28;46488;-83
2021/07/02 09:35:32;;;;;;;;;13.75;13.75;;;;;56.00;8.01;101229.22;5072137;28;45442;-83
2021/07/02 09:38:00;;;;;;;;;13.25;13.25;;;;;56.43;7.48;101224.47;5070451;28;45301;-84
2021/07/02 09:40:29;;;;;;;;;13.75;13.50;;;;;56.11;7.57;101232.91;5064005;28;45957;-84
2021/07/02 09:43:08;;;;;;;;;15.25;14.50;;;;;56.23;8.21;101214.69;5066601;28;45261;-82
2021/07/02 09:45:50;;;;;;;;;11.00;11.00;;;;;56.98;7.08;101216.34;5064924;28;45389;-82
2021/07/02 09:48:19;;;;;;;;;15.75;14.25;;;;;57.40;6.14;101217.44;5064285;28;45421;-84
2021/07/02 09:50:52;;;;;;;;;13.00;12.00;;;;;57.48;6.94;101210.50;5062263;28;46391;-84
2021/07/02 09:53:22;;;;;;;;;12.50;12.50;;;;;57.81;5.79;101209.13;5065019;28;45335;-84
2021/07/02 09:56:06;;;;;;;;;11.75;11.75;;;;;58.09;5.50;101208.97;5067477;28;45419;-82
2021/07/02 09:58:49;;;;;;;;;12.25;11.50;;;;;57.05;5.76;101206.97;5073665;28;45509;-84
2021/07/02 10:01:44;;;;;;;;;13.25;13.25;;;;;52.98;7.26;101203.81;5074507;28;48206;-84
2021/07/02 10:04:15;;;;;;;;;13.25;13.25;;;;;49.53;8.99;101187.84;5057912;28;45496;-84
2021/07/02 10:06:43;;;;;;;;;14.00;12.75;;;;;46.70;10.05;101187.56;5085090;28;45219;-84
2021/07/02 10:09:10;;;;;;;;;13.00;13.00;;;;;45.89;11.68;101185.63;5065032;28;45597;-83
2021/07/02 10:11:37;;;;;;;;;12.50;12.00;;;;;44.77;12.25;101184.56;5063714;28;47561;-83
2021/07/02 10:14:02;;;;;;;;;12.00;11.25;;;;;43.39;13.89;101177.97;5063311;28;45493;-83
2021/07/02 10:16:30;;;;;;;;;11.75;11.75;;;;;42.13;14.63;101182.91;5063181;28;45425;-83
2021/07/02 10:19:03;;;;;;;;;15.75;13.00;;;;;41.90;14.81;101169.13;5083843;28;45144;-83
2021/07/02 10:21:29;;;;;;;;;15.50;15.00;;;;;41.84;15.83;101176.72;5069592;28;47416;-83
2021/07/02 10:23:59;;;;;;;;;15.00;15.00;;;;;40.74;16.05;101175.94;5062898;28;45259;-83
2021/07/02 10:26:26;;;;;;;;;13.25;13.25;;;;;39.52;16.78;101180.78;5061617;28;45468;-83
2021/07/02 10:28:52;;;;;;;;;14.00;13.25;;;;;38.47;17.51;101186.38;5073550;28;45516;-83
2021/07/02 10:31:18;;;;;;;;;17.00;15.25;;;;;37.51;17.80;101176.06;5061199;28;45535;-83
2021/07/02 10:33:52;;;;;;;;;17.25;13.00;;;;;36.75;19.13;101181.22;5061305;28;45426;-83
2021/07/02 10:36:18;;;;;;;;;14.50;14.25;;;;;36.08;20.25;101176.28;5062012;28;45434;-83
2021/07/02 10:38:49;;;;;;;;;16.25;13.25;;;;;35.54;20.97;101180.94;5060808;28;45758;-83
2021/07/02 10:41:18;;;;;;;;;14.75;11.75;;;;;35.25;21.54;101181.16;5063486;28;45461;-83
2021/07/02 10:44:00;;;;;;;;;16.75;16.75;;;;;35.35;22.07;101180.47;5062416;28;45415;-82
2021/07/02 10:46:25;;;;;;;;;17.50;14.25;;;;;35.39;22.10;101181.63;5061845;28;45440;-83
2021/07/02 10:48:57;;;;;;;;;16.75;13.75;;;;;35.14;22.39;101182.13;5072269;28;45513;-83
2021/07/02 10:51:39;;;;;;;;;22.00;15.25;;;;;34.78;22.94;101188.22;5076655;28;47344;-83
2021/07/02 10:54:14;;;;;;;;;17.00;15.00;;;;;34.25;23.62;101185.97;5059610;28;45246;-83
2021/07/02 10:57:00;;;;;;;;;13.75;12.75;;;;;33.94;23.53;101182.69;5063974;28;45213;-83
2021/07/02 10:59:37;;;;;;;;;11.50;11.50;;;;;33.98;23.75;101183.84;5062256;28;45203;-81
2021/07/02 11:02:03;;;;;;;;;15.00;13.00;;;;;34.02;23.81;101176.81;5061353;28;45335;-81
2021/07/02 11:04:37;;;;;;;;;9.75;9.75;;;;;33.95;23.35;101176.16;5059106;28;45229;-83
2021/07/02 11:07:08;;;;;;;;;14.00;11.25;;;;;33.69;24.38;101166.59;5060684;28;45215;-82
2021/07/02 11:10:00;;;;;;;;;16.00;14.33;;;;;33.38;24.59;101164.34;5060966;28;45455;-82